createdAt,value
2019-05-30T00:01:34.471Z,99.90
2019-05-30T00:04:05.154Z,99.90
2019-05-30T00:06:34.608Z,99.90
2019-05-30T00:09:06.740Z,99.90
2019-05-30T00:11:36.196Z,99.90
2019-05-30T00:14:06.064Z,99.90
2019-05-30T00:16:37.453Z,99.90
2019-05-30T00:19:06.911Z,99.90
2019-05-30T00:21:36.355Z,99.90
2019-05-30T00:24:06.176Z,99.90
2019-05-30T00:26:35.742Z,99.90
2019-05-30T00:29:06.557Z,99.90
2019-05-30T00:31:36.478Z,99.90
2019-05-30T00:34:06.359Z,99.90
2019-05-30T00:36:35.815Z,99.90
2019-05-30T00:39:08.044Z,99.90
2019-05-30T00:41:37.554Z,99.90
2019-05-30T00:44:07.377Z,99.90
2019-05-30T00:46:37.276Z,99.90
2019-05-30T00:49:06.753Z,99.90
2019-05-30T00:51:36.169Z,99.90
2019-05-30T00:54:06.985Z,99.90
2019-05-30T00:56:36.877Z,99.90
2019-05-30T00:59:06.956Z,99.90
2019-05-30T01:01:36.671Z,99.90
2019-05-30T01:04:07.114Z,99.90
2019-05-30T01:06:36.788Z,99.90
2019-05-30T01:09:07.574Z,99.90
2019-05-30T01:11:37.402Z,99.90
2019-05-30T01:14:07.479Z,99.90
2019-05-30T01:16:38.174Z,99.90
2019-05-30T01:19:09.604Z,99.90
2019-05-30T01:21:39.480Z,99.90
2019-05-30T01:24:09.267Z,99.90
2019-05-30T01:26:39.083Z,99.90
2019-05-30T01:29:08.887Z,99.90
2019-05-30T01:31:38.328Z,99.90
2019-05-30T01:34:07.995Z,99.90
2019-05-30T01:36:39.040Z,99.90
2019-05-30T01:39:08.819Z,99.90
2019-05-30T01:41:38.558Z,99.90
2019-05-30T01:44:09.059Z,99.90
2019-05-30T01:46:39.871Z,99.90
2019-05-30T01:49:10.247Z,99.90
2019-05-30T01:51:39.935Z,99.90
2019-05-30T01:54:09.386Z,99.90
2019-05-30T01:56:38.834Z,99.90
2019-05-30T01:59:08.957Z,99.90
2019-05-30T02:01:38.869Z,99.90
2019-05-30T02:04:09.522Z,99.90
2019-05-30T02:06:38.967Z,99.90
2019-05-30T02:09:10.379Z,99.90
2019-05-30T02:11:41.754Z,99.90
2019-05-30T02:14:11.226Z,99.90
2019-05-30T02:16:40.672Z,99.90
2019-05-30T02:19:10.534Z,99.90
2019-05-30T02:21:40.378Z,99.90
2019-05-30T02:24:12.013Z,99.90
2019-05-30T02:26:41.533Z,99.90
2019-05-30T02:29:10.984Z,99.90
2019-05-30T02:31:41.706Z,99.90
2019-05-30T02:34:12.193Z,99.90
2019-05-30T02:36:42.420Z,99.90
2019-05-30T02:39:12.396Z,99.90
2019-05-30T02:41:41.958Z,99.90
2019-05-30T02:44:12.446Z,99.90
2019-05-30T02:46:42.378Z,99.90
2019-05-30T02:49:13.826Z,99.90
2019-05-30T02:51:44.235Z,99.90
2019-05-30T02:54:13.698Z,99.90
2019-05-30T02:56:43.130Z,99.90
2019-05-30T02:59:13.603Z,99.90
2019-05-30T03:02:00.066Z,99.90
2019-05-30T03:04:16.961Z,99.90
2019-05-30T03:06:46.427Z,99.90
2019-05-30T03:09:17.931Z,99.90
2019-05-30T03:11:47.738Z,99.90
2019-05-30T03:14:19.736Z,99.90
2019-05-30T03:16:48.637Z,99.90
2019-05-30T03:19:18.139Z,99.90
2019-05-30T03:21:47.617Z,99.90
2019-05-30T03:24:17.085Z,99.90
2019-05-30T03:26:46.982Z,99.90
2019-05-30T03:29:16.447Z,99.90
2019-05-30T03:31:47.591Z,99.90
2019-05-30T03:34:26.933Z,99.90
2019-05-30T03:36:48.170Z,99.90
2019-05-30T03:39:17.642Z,99.90
2019-05-30T03:41:47.073Z,99.90
2019-05-30T03:44:16.529Z,99.90
2019-05-30T03:46:52.108Z,99.90
2019-05-30T03:49:24.633Z,99.90
2019-05-30T03:51:57.140Z,99.90
2019-05-30T03:54:27.551Z,99.90
2019-05-30T03:57:19.743Z,99.90
2019-05-30T03:59:55.732Z,99.90
2019-05-30T04:02:57.128Z,99.90
2019-05-30T04:05:26.162Z,99.90
2019-05-30T04:07:58.225Z,99.90
2019-05-30T04:10:30.934Z,99.90
2019-05-30T04:13:10.323Z,99.90
2019-05-30T04:15:40.713Z,99.90
2019-05-30T04:18:11.912Z,99.90
2019-05-30T04:20:50.782Z,99.90
2019-05-30T04:23:22.144Z,99.90
2019-05-30T04:26:07.433Z,99.90
2019-05-30T04:28:41.408Z,99.90
2019-05-30T04:31:12.471Z,99.90
2019-05-30T04:33:41.923Z,99.90
2019-05-30T04:36:12.518Z,99.90
2019-05-30T04:38:46.344Z,99.90
2019-05-30T04:41:27.289Z,99.90
2019-05-30T04:43:58.944Z,99.90
2019-05-30T04:46:37.484Z,99.90
2019-05-30T04:49:21.883Z,99.90
2019-05-30T04:54:41.585Z,99.90
2019-05-30T04:57:15.051Z,99.90
2019-05-30T04:59:53.420Z,99.90
2019-05-30T05:05:27.151Z,99.90
2019-05-30T05:08:01.574Z,99.90
2019-05-30T05:10:38.840Z,99.90
2019-05-30T05:13:09.266Z,99.90
2019-05-30T05:15:39.935Z,99.90
2019-05-30T05:18:10.535Z,99.90
2019-05-30T05:20:40.547Z,99.90
2019-05-30T05:23:15.167Z,99.90
2019-05-30T05:26:00.332Z,99.90
2019-05-30T05:28:22.288Z,99.90
2019-05-30T05:30:54.246Z,99.90
2019-05-30T05:33:28.434Z,99.90
2019-05-30T05:39:02.301Z,99.90
2019-05-30T05:41:34.015Z,99.90
2019-05-30T05:44:03.899Z,99.90
2019-05-30T05:46:37.631Z,99.90
2019-05-30T05:49:09.671Z,99.90
2019-05-30T05:51:39.128Z,99.90
2019-05-30T05:54:08.649Z,99.90
2019-05-30T05:56:38.095Z,99.90
2019-05-30T05:59:07.757Z,99.90
2019-05-30T06:01:37.292Z,99.90
2019-05-30T06:04:13.000Z,99.90
2019-05-30T06:06:37.807Z,99.90
2019-05-30T06:09:07.722Z,99.90
2019-05-30T06:11:37.294Z,99.90
2019-05-30T06:14:06.827Z,99.90
2019-05-30T06:16:36.263Z,99.90
2019-05-30T06:19:05.778Z,99.90
2019-05-30T06:21:35.244Z,99.90
2019-05-30T06:24:05.012Z,99.90
2019-05-30T06:26:34.435Z,99.90
2019-05-30T06:29:04.409Z,99.90
2019-05-30T06:31:34.022Z,99.90
2019-05-30T06:34:03.583Z,99.90
2019-05-30T06:36:33.021Z,99.90
2019-05-30T06:39:02.899Z,99.90
2019-05-30T06:41:33.815Z,99.90
2019-05-30T06:44:05.776Z,99.90
2019-05-30T06:46:35.580Z,99.90
2019-05-30T06:49:05.187Z,99.90
2019-05-30T06:51:34.634Z,99.90
2019-05-30T06:54:04.218Z,99.90
2019-05-30T06:56:33.693Z,99.90
2019-05-30T06:59:03.730Z,99.90
2019-05-30T07:01:33.167Z,99.90
2019-05-30T07:04:03.033Z,99.90
2019-05-30T07:06:33.708Z,99.90
2019-05-30T07:09:04.912Z,99.90
2019-05-30T07:11:34.366Z,99.90
2019-05-30T07:14:04.380Z,99.90
2019-05-30T07:16:33.907Z,99.90
2019-05-30T07:19:03.362Z,99.90
2019-05-30T07:21:33.906Z,99.90
2019-05-30T07:24:03.568Z,99.90
2019-05-30T07:26:34.044Z,99.90
2019-05-30T07:29:04.198Z,99.90
2019-05-30T07:31:34.378Z,99.90
2019-05-30T07:34:04.371Z,99.90
2019-05-30T07:36:34.433Z,99.90
2019-05-30T07:39:07.329Z,99.90
2019-05-30T07:41:37.248Z,99.90
2019-05-30T07:44:06.771Z,99.90
2019-05-30T07:46:37.210Z,99.90
2019-05-30T07:49:06.954Z,99.90
2019-05-30T07:51:36.407Z,99.90
2019-05-30T07:54:06.537Z,99.90
2019-05-30T07:56:37.864Z,99.90
2019-05-30T07:59:07.063Z,99.90
2019-05-30T08:01:36.510Z,99.90
2019-05-30T08:04:05.951Z,99.90
2019-05-30T08:06:35.817Z,99.90
2019-05-30T08:09:07.115Z,99.90
2019-05-30T08:11:36.600Z,99.90
2019-05-30T08:14:07.223Z,99.90
2019-05-30T08:16:37.525Z,99.90
2019-05-30T08:19:07.098Z,99.90
2019-05-30T08:21:36.543Z,99.90
2019-05-30T08:24:05.983Z,99.90
2019-05-30T08:26:36.394Z,99.90
2019-05-30T08:29:06.087Z,99.90
2019-05-30T08:31:36.789Z,99.90
2019-05-30T08:34:06.683Z,99.90
2019-05-30T08:36:37.106Z,99.90
2019-05-30T08:39:07.591Z,99.90
2019-05-30T08:41:37.430Z,99.90
2019-05-30T08:44:07.239Z,99.90
2019-05-30T08:46:37.839Z,99.90
2019-05-30T08:49:07.653Z,99.90
2019-05-30T08:51:38.226Z,99.90
2019-05-30T08:54:08.134Z,99.90
2019-05-30T08:56:38.579Z,99.90
2019-05-30T08:59:08.971Z,99.90
2019-05-30T09:01:40.322Z,99.90
2019-05-30T09:04:09.491Z,99.90
2019-05-30T09:06:39.908Z,99.90
2019-05-30T09:09:09.822Z,99.90
2019-05-30T09:11:40.477Z,99.90
2019-05-30T09:14:10.126Z,99.90
2019-05-30T09:16:39.587Z,99.90
2019-05-30T09:19:09.040Z,99.90
2019-05-30T09:21:39.800Z,99.90
2019-05-30T09:24:09.784Z,99.90
2019-05-30T09:26:43.773Z,99.90
2019-05-30T09:29:10.467Z,99.90
2019-05-30T09:31:41.022Z,99.90
2019-05-30T09:34:12.171Z,99.90
2019-05-30T09:36:42.769Z,99.90
2019-05-30T09:39:12.359Z,99.90
2019-05-30T09:41:42.207Z,99.90
2019-05-30T09:44:12.139Z,99.90
2019-05-30T09:46:44.337Z,99.90
2019-05-30T09:49:13.834Z,99.90
2019-05-30T09:51:44.107Z,99.90
2019-05-30T09:54:14.654Z,99.90
2019-05-30T09:56:45.003Z,99.90
2019-05-30T09:59:14.682Z,99.90
2019-05-30T10:01:44.380Z,99.90
2019-05-30T10:04:13.971Z,99.90
2019-05-30T10:06:44.621Z,99.90
2019-05-30T10:09:14.392Z,99.90
2019-05-30T10:11:45.598Z,99.90
2019-05-30T10:14:15.052Z,99.90
2019-05-30T10:16:52.426Z,99.90
2019-05-30T10:19:16.899Z,99.90
2019-05-30T10:21:47.172Z,99.90
2019-05-30T10:24:17.978Z,99.90
2019-05-30T10:26:47.427Z,99.90
2019-05-30T10:29:16.863Z,99.90
2019-05-30T10:31:46.551Z,99.90
2019-05-30T10:34:16.254Z,99.90
2019-05-30T10:36:46.281Z,99.90
2019-05-30T10:39:17.533Z,99.90
2019-05-30T10:41:47.587Z,99.90
2019-05-30T10:44:17.459Z,99.90
2019-05-30T10:46:47.571Z,99.90
2019-05-30T10:49:31.503Z,99.90
2019-05-30T10:51:49.607Z,99.90
2019-05-30T10:54:19.322Z,99.90
2019-05-30T10:57:00.851Z,99.90
2019-05-30T10:59:30.287Z,99.90
2019-05-30T11:01:59.819Z,99.90
2019-05-30T11:04:29.359Z,99.90
2019-05-30T11:07:11.679Z,99.90
2019-05-30T11:09:41.878Z,99.90
2019-05-30T11:12:11.355Z,99.90
2019-05-30T11:14:40.791Z,99.90
2019-05-30T11:17:10.254Z,99.90
2019-05-30T11:19:39.733Z,99.90
2019-05-30T11:22:09.414Z,99.90
2019-05-30T11:24:38.878Z,99.90
2019-05-30T11:27:08.387Z,99.90
2019-05-30T11:29:37.831Z,99.90
2019-05-30T11:32:07.298Z,99.90
2019-05-30T11:34:36.752Z,99.90
2019-05-30T11:37:18.773Z,99.90
2019-05-30T11:39:37.649Z,99.90
2019-05-30T11:42:07.078Z,99.90
2019-05-30T11:44:36.541Z,99.90
2019-05-30T11:47:06.055Z,99.90
2019-05-30T11:49:35.523Z,99.90
2019-05-30T11:52:05.033Z,99.90
2019-05-30T11:54:34.467Z,99.90
2019-05-30T11:57:03.992Z,99.90
2019-05-30T11:59:33.456Z,99.90
2019-05-30T12:02:02.944Z,99.90
2019-05-30T12:04:32.383Z,99.90
2019-05-30T12:07:01.819Z,99.90
2019-05-30T12:09:31.297Z,99.90
2019-05-30T12:12:01.462Z,99.90
2019-05-30T12:14:31.048Z,99.90
2019-05-30T12:17:01.520Z,99.90
2019-05-30T12:19:31.219Z,99.90
2019-05-30T12:22:00.659Z,99.90
2019-05-30T12:24:30.200Z,99.90
2019-05-30T12:27:00.687Z,99.90
2019-05-30T12:29:30.158Z,99.90
2019-05-30T12:32:18.940Z,99.90
2019-05-30T12:34:48.490Z,99.90
2019-05-30T12:37:17.927Z,99.90
2019-05-30T12:39:47.375Z,99.90
2019-05-30T12:42:16.854Z,99.90
2019-05-30T12:44:46.309Z,99.90
2019-05-30T12:47:16.935Z,99.90
2019-05-30T12:49:46.377Z,99.90
2019-05-30T12:52:15.823Z,99.90
2019-05-30T12:54:45.282Z,99.90
2019-05-30T12:57:14.820Z,99.90
2019-05-30T12:59:45.591Z,99.90
2019-05-30T13:02:15.055Z,99.90
2019-05-30T13:04:44.563Z,99.90
2019-05-30T13:07:14.009Z,99.90
2019-05-30T13:09:43.509Z,99.90
2019-05-30T13:12:12.923Z,99.90
2019-05-30T13:14:42.367Z,99.90
2019-05-30T13:17:12.119Z,99.90
2019-05-30T13:19:41.560Z,99.90
2019-05-30T13:22:11.011Z,99.90
2019-05-30T13:24:40.492Z,99.90
2019-05-30T13:27:09.923Z,99.90
2019-05-30T13:29:39.370Z,99.90
2019-05-30T13:32:08.829Z,99.90
2019-05-30T13:34:40.084Z,99.90
2019-05-30T13:37:10.651Z,99.90
2019-05-30T13:39:40.091Z,99.90
2019-05-30T13:42:09.876Z,99.90
2019-05-30T13:44:39.399Z,99.90
2019-05-30T13:47:08.965Z,99.90
2019-05-30T13:49:38.471Z,99.90
2019-05-30T13:52:09.178Z,99.90
2019-05-30T13:54:38.715Z,99.90
2019-05-30T13:57:08.172Z,99.90
2019-05-30T13:59:37.659Z,99.90
2019-05-30T14:02:08.189Z,99.90
2019-05-30T14:04:38.553Z,99.90
2019-05-30T14:07:08.472Z,99.90
2019-05-30T14:09:39.251Z,99.90
2019-05-30T14:12:08.830Z,99.90
2019-05-30T14:14:38.290Z,99.90
2019-05-30T14:17:10.348Z,99.90
2019-05-30T14:19:39.263Z,99.90
2019-05-30T14:22:09.419Z,99.90
2019-05-30T14:24:39.500Z,99.90
2019-05-30T14:27:09.596Z,99.90
2019-05-30T14:29:39.319Z,99.90
2019-05-30T14:32:09.881Z,99.90
2019-05-30T14:34:39.406Z,99.90
2019-05-30T14:37:08.859Z,99.90
2019-05-30T14:39:38.326Z,99.90
2019-05-30T14:42:09.086Z,99.90
2019-05-30T14:44:38.760Z,99.90
2019-05-30T14:47:08.426Z,99.90
2019-05-30T14:49:37.952Z,99.90
2019-05-30T14:52:08.692Z,99.90
2019-05-30T14:54:41.908Z,99.90
2019-05-30T14:57:11.376Z,99.90
2019-05-30T14:59:40.816Z,99.90
2019-05-30T15:02:13.243Z,99.90
2019-05-30T15:04:43.028Z,99.90
2019-05-30T15:07:13.607Z,99.90
2019-05-30T15:09:43.145Z,99.90
2019-05-30T15:12:12.738Z,99.90
2019-05-30T15:14:42.347Z,99.90
2019-05-30T15:17:12.146Z,99.90
2019-05-30T15:19:41.842Z,99.90
2019-05-30T15:22:13.885Z,99.90
2019-05-30T15:24:42.608Z,99.90
2019-05-30T15:27:12.170Z,99.90
2019-05-30T15:29:41.806Z,99.90
2019-05-30T15:32:12.294Z,99.90
2019-05-30T15:34:42.003Z,99.90
2019-05-30T15:37:12.757Z,99.90
2019-05-30T15:39:42.426Z,99.90
2019-05-30T15:42:12.466Z,99.90
2019-05-30T15:44:43.156Z,99.90
2019-05-30T15:47:12.632Z,99.90
2019-05-30T15:49:42.103Z,99.90
2019-05-30T15:52:12.036Z,99.90
2019-05-30T15:54:42.848Z,99.90
2019-05-30T15:57:13.279Z,99.90
2019-05-30T15:59:43.025Z,99.90
2019-05-30T16:02:12.467Z,99.90
2019-05-30T16:04:41.915Z,99.90
2019-05-30T16:07:12.589Z,99.90
2019-05-30T16:09:47.044Z,99.90
2019-05-30T16:12:13.175Z,99.90
2019-05-30T16:14:42.627Z,99.90
2019-05-30T16:17:13.722Z,99.90
2019-05-30T16:19:43.285Z,99.90
2019-05-30T16:22:12.720Z,99.90
2019-05-30T16:24:42.146Z,99.90
2019-05-30T16:27:11.612Z,99.90
2019-05-30T16:29:41.050Z,99.90
2019-05-30T16:32:10.567Z,99.90
2019-05-30T16:34:40.087Z,99.90
2019-05-30T16:37:09.524Z,99.90
2019-05-30T16:39:38.976Z,99.90
2019-05-30T16:42:08.499Z,99.90
2019-05-30T16:44:38.285Z,99.90
2019-05-30T16:47:09.068Z,99.90
2019-05-30T16:49:38.553Z,99.90
2019-05-30T16:52:08.100Z,99.90
2019-05-30T16:54:37.535Z,98.80
2019-05-30T16:57:06.983Z,96.10
2019-05-30T16:59:36.452Z,97.50
2019-05-30T17:02:06.021Z,98.70
2019-05-30T17:04:35.466Z,99.40
2019-05-30T17:07:05.168Z,99.30
2019-05-30T17:09:34.610Z,99.20
2019-05-30T17:12:04.073Z,98.40
2019-05-30T17:14:33.502Z,97.60
2019-05-30T17:17:03.225Z,96.70
2019-05-30T17:19:32.816Z,94.50
2019-05-30T17:22:02.299Z,93.00
2019-05-30T17:24:31.751Z,93.20
2019-05-30T17:27:01.207Z,94.30
2019-05-30T17:29:30.666Z,94.20
2019-05-30T17:32:00.116Z,95.50
2019-05-30T17:34:30.643Z,96.50
2019-05-30T17:37:00.083Z,97.30
2019-05-30T17:39:29.532Z,97.90
2019-05-30T17:41:59.056Z,98.10
2019-05-30T17:44:29.795Z,99.00
2019-05-30T17:47:00.630Z,99.40
2019-05-30T17:49:30.109Z,99.50
2019-05-30T17:52:00.647Z,99.20
2019-05-30T17:54:30.260Z,99.50
2019-05-30T17:56:59.707Z,99.80
2019-05-30T17:59:30.398Z,99.80
2019-05-30T18:02:00.994Z,99.90
2019-05-30T18:04:30.844Z,99.90
2019-05-30T18:07:00.381Z,99.90
2019-05-30T18:09:31.080Z,99.90
2019-05-30T18:12:00.801Z,99.90
2019-05-30T18:14:31.490Z,99.90
2019-05-30T18:17:01.201Z,99.90
2019-05-30T18:19:31.996Z,99.90
2019-05-30T18:22:01.448Z,99.90
2019-05-30T18:24:31.810Z,99.90
2019-05-30T18:27:01.442Z,99.90
2019-05-30T18:29:32.114Z,99.90
2019-05-30T18:32:01.864Z,99.90
2019-05-30T18:34:32.794Z,99.90
2019-05-30T18:37:03.454Z,99.90
2019-05-30T18:39:32.953Z,99.90
2019-05-30T18:42:02.530Z,99.90
2019-05-30T18:44:33.219Z,99.90
2019-05-30T18:47:03.295Z,99.90
2019-05-30T18:49:33.389Z,99.90
2019-05-30T18:52:03.102Z,99.90
2019-05-30T18:54:32.948Z,99.90
2019-05-30T18:57:02.642Z,99.90
2019-05-30T18:59:33.155Z,99.90
2019-05-30T19:02:03.911Z,99.90
2019-05-30T19:04:33.703Z,99.90
2019-05-30T19:07:03.222Z,99.90
2019-05-30T19:09:34.123Z,99.90
2019-05-30T19:12:03.727Z,99.90
2019-05-30T19:14:35.826Z,99.90
2019-05-30T19:17:05.486Z,99.90
2019-05-30T19:19:35.982Z,99.90
2019-05-30T19:22:05.547Z,99.90
2019-05-30T19:24:35.001Z,99.90
2019-05-30T19:27:04.443Z,99.90
2019-05-30T19:29:34.896Z,99.90
2019-05-30T19:32:04.559Z,99.90
2019-05-30T19:34:34.944Z,99.90
2019-05-30T19:37:04.584Z,99.90
2019-05-30T19:39:34.610Z,99.90
2019-05-30T19:42:05.478Z,99.90
2019-05-30T19:44:39.235Z,99.90
2019-05-30T19:47:06.050Z,99.90
2019-05-30T19:49:36.803Z,99.90
2019-05-30T19:52:06.983Z,99.90
2019-05-30T19:54:37.153Z,99.90
2019-05-30T19:57:06.695Z,99.90
2019-05-30T19:59:36.299Z,99.90
2019-05-30T20:02:06.265Z,99.90
2019-05-30T20:04:36.338Z,99.90
2019-05-30T20:07:06.028Z,99.90
2019-05-30T20:09:36.566Z,99.90
2019-05-30T20:12:08.975Z,99.90
2019-05-30T20:14:39.251Z,99.90
2019-05-30T20:17:09.133Z,99.90
2019-05-30T20:19:39.896Z,99.90
2019-05-30T20:22:09.559Z,99.90
2019-05-30T20:24:39.011Z,99.90
2019-05-30T20:27:08.466Z,99.90
2019-05-30T20:29:39.118Z,99.90
2019-05-30T20:32:09.193Z,99.90
2019-05-30T20:34:38.950Z,99.90
2019-05-30T20:37:09.719Z,99.90
2019-05-30T20:39:39.171Z,99.90
2019-05-30T20:42:18.947Z,99.90
2019-05-30T20:44:40.962Z,99.90
2019-05-30T20:47:11.123Z,99.90
2019-05-30T20:49:41.219Z,99.90
2019-05-30T20:52:10.785Z,99.90
2019-05-30T20:54:41.247Z,99.90
2019-05-30T20:57:11.315Z,99.90
2019-05-30T20:59:40.839Z,99.90
2019-05-30T21:02:10.271Z,99.90
2019-05-30T21:04:40.950Z,99.90
2019-05-30T21:07:11.483Z,99.90
2019-05-30T21:09:42.042Z,99.90
2019-05-30T21:12:14.150Z,99.90
2019-05-30T21:14:46.664Z,99.90
2019-05-30T21:17:16.701Z,99.90
2019-05-30T21:19:46.157Z,99.90
2019-05-30T21:22:15.848Z,99.90
2019-05-30T21:24:45.294Z,99.90
2019-05-30T21:27:14.758Z,99.90
2019-05-30T21:29:45.631Z,99.90
2019-05-30T21:32:15.292Z,99.90
2019-05-30T21:34:46.378Z,99.90
2019-05-30T21:37:15.863Z,99.90
2019-05-30T21:39:46.096Z,99.90
2019-05-30T21:42:15.779Z,99.90
2019-05-30T21:44:49.703Z,99.90
2019-05-30T21:47:28.879Z,99.90
2019-05-30T21:49:58.332Z,99.90
2019-05-30T21:52:27.766Z,99.90
2019-05-30T21:54:57.240Z,99.90
2019-05-30T21:57:26.662Z,99.90
2019-05-30T21:59:56.103Z,99.90
2019-05-30T22:02:25.575Z,99.90
2019-05-30T22:04:55.007Z,99.90
2019-05-30T22:07:24.523Z,99.90
2019-05-30T22:09:54.991Z,99.90
2019-05-30T22:12:24.487Z,99.90
2019-05-30T22:14:53.935Z,99.90
2019-05-30T22:17:23.383Z,99.90
2019-05-30T22:19:53.236Z,99.90
2019-05-30T22:22:22.851Z,99.90
2019-05-30T22:24:52.427Z,99.90
2019-05-30T22:27:21.952Z,99.90
2019-05-30T22:29:52.612Z,99.90
2019-05-30T22:32:22.758Z,99.90
2019-05-30T22:34:53.017Z,99.90
2019-05-30T22:37:22.551Z,99.90
2019-05-30T22:39:53.031Z,99.90
2019-05-30T22:42:22.693Z,99.90
2019-05-30T22:44:52.327Z,99.90
2019-05-30T22:47:21.912Z,99.90
2019-05-30T22:49:52.559Z,99.90
2019-05-30T22:52:23.712Z,99.90
2019-05-30T22:54:53.311Z,99.90
2019-05-30T22:57:22.790Z,99.90
2019-05-30T22:59:53.065Z,99.90
2019-05-30T23:02:22.671Z,99.90
2019-05-30T23:04:52.315Z,99.90
2019-05-30T23:07:21.836Z,99.90
2019-05-30T23:09:51.792Z,99.90
2019-05-30T23:12:21.343Z,99.90
2019-05-30T23:14:50.796Z,99.90
2019-05-30T23:17:20.239Z,99.90
2019-05-30T23:19:51.397Z,99.90
2019-05-30T23:22:20.790Z,99.90
2019-05-30T23:24:52.273Z,99.90
2019-05-30T23:27:21.294Z,99.90
2019-05-30T23:29:51.719Z,99.90
2019-05-30T23:32:21.298Z,99.90
2019-05-30T23:34:50.747Z,99.90
2019-05-30T23:37:20.240Z,99.90
2019-05-30T23:39:50.715Z,99.90
2019-05-30T23:42:20.306Z,99.90
2019-05-30T23:44:51.278Z,99.90
2019-05-30T23:47:20.809Z,99.90
2019-05-30T23:49:51.725Z,99.90
2019-05-30T23:52:21.626Z,99.90
2019-05-30T23:54:52.161Z,99.90
2019-05-30T23:57:21.946Z,99.90
2019-05-30T23:59:52.615Z,99.90
